Time;durP1;ratioP1;P1;durP2;ratioP2;P2;SDS_P1;SDS_P2;PMS_P1;PMS_P2;Temp;Humidity;BMP_temperature;BMP_pressure;BME280_temperature;BME280_humidity;BME280_pressure;Samples;Min_cycle;Max_cycle;Signal;HPM_P1;HPM_P2
2022/08/23 00:01:19;;;;;;;;;;;;;;;18.77;64.24;101315.34;5018892;28;19933;-57
2022/08/23 00:03:44;;;;;;;;;;;;;;;18.62;64.68;101310.22;5021340;28;19913;-58
2022/08/23 00:06:09;;;;;;;;;;;;;;;18.56;64.28;101311.06;5024893;28;19959;-57
2022/08/23 00:08:35;;;;;;;;;;;;;;;18.53;64.19;101311.47;5019323;28;21410;-57
2022/08/23 00:11:00;;;;;;;;;;;;;;;18.50;63.74;101318.09;5020867;28;20547;-57
2022/08/23 00:13:26;;;;;;;;;;;;;;;18.49;64.10;101315.59;5022197;28;19917;-58
2022/08/23 00:15:52;;;;;;;;;;;;;;;18.48;63.75;101317.47;5022191;28;19956;-58
2022/08/23 00:18:17;;;;;;;;;;;;;;;18.46;63.77;101307.94;5015586;28;19960;-57
2022/08/23 00:20:43;;;;;;;;;;;;;;;18.44;64.32;101307.34;5023374;28;20627;-57
2022/08/23 00:23:08;;;;;;;;;;;;;;;18.43;64.58;101303.00;5024277;28;19925;-58
2022/08/23 00:25:33;;;;;;;;;;;;;;;18.41;64.44;101303.22;5021820;28;20372;-57
2022/08/23 00:27:59;;;;;;;;;;;;;;;18.39;65.45;101304.47;5019351;28;19916;-58
2022/08/23 00:30:24;;;;;;;;;;;;;;;18.36;65.38;101302.19;5021815;28;19940;-57
2022/08/23 00:32:49;;;;;;;;;;;;;;;18.27;65.13;101297.06;5014075;28;20063;-57
2022/08/23 00:35:16;;;;;;;;;;;;;;;18.15;65.83;101300.56;5020524;28;20569;-57
2022/08/23 00:37:41;;;;;;;;;;;;;;;18.05;65.49;101295.63;5014959;28;19942;-57
2022/08/23 00:40:08;;;;;;;;;;;;;;;18.03;65.49;101304.94;5023079;28;19971;-58
2022/08/23 00:48:40;;;;;;;;;;;;;;;17.90;65.28;101300.38;5021235;28;19979;-57
2022/08/23 00:51:11;;;;;;;;;;;;;;;17.87;65.25;101308.84;5021846;28;19913;-56
2022/08/23 00:53:39;;;;;;;;;;;;;;;17.87;65.53;101300.81;5017490;28;20912;-57
2022/08/23 00:56:06;;;;;;;;;;;;;;;17.87;66.13;101307.00;5017799;28;19963;-57
2022/08/23 00:58:31;;;;;;;;;;;;;;;17.85;66.67;101306.38;5024797;28;20008;-57
2022/08/23 01:00:58;;;;;;;;;;;;;;;17.83;66.72;101303.06;5018677;28;20017;-57
2022/08/23 01:03:25;;;;;;;;;;;;;;;17.81;67.07;101313.22;5016943;28;19947;-57
2022/08/23 01:06:12;;;;;;;;;;;;;;;17.76;66.68;101310.31;5021040;28;19919;-58
2022/08/23 01:08:40;;;;;;;;;;;;;;;17.79;67.17;101309.06;5022019;28;20007;-57
2022/08/23 01:11:08;;;;;;;;;;;;;;;17.77;67.42;101311.97;5019939;28;19917;-57
2022/08/23 01:13:36;;;;;;;;;;;;;;;17.77;67.69;101300.41;5019909;28;19971;-57
2022/08/23 01:16:24;;;;;;;;;;;;;;;17.76;67.20;101310.31;5021177;28;19936;-57
2022/08/23 01:18:50;;;;;;;;;;;;;;;17.73;66.85;101310.72;5009288;28;20000;-57
2022/08/23 01:21:20;;;;;;;;;;;;;;;17.71;66.88;101309.28;5020228;28;20011;-57
2022/08/23 01:23:47;;;;;;;;;;;;;;;17.70;66.92;101311.16;5024211;28;19920;-57
2022/08/23 01:26:13;;;;;;;;;;;;;;;17.70;67.11;101310.31;5019767;28;20007;-57
2022/08/23 01:28:39;;;;;;;;;;;;;;;17.63;66.98;101311.09;5021472;28;19917;-57
2022/08/23 01:31:06;;;;;;;;;;;;;;;17.57;66.44;101309.22;5019247;28;19959;-57
2022/08/23 01:33:31;;;;;;;;;;;;;;;17.57;66.65;101306.53;5019131;28;19921;-57
2022/08/23 01:35:57;;;;;;;;;;;;;;;17.57;66.91;101311.91;5024787;28;19923;-57
2022/08/23 01:38:23;;;;;;;;;;;;;;;17.54;66.94;101309.66;5023046;28;19921;-58
2022/08/23 01:40:49;;;;;;;;;;;;;;;17.50;67.11;101311.09;5022754;28;21607;-57
2022/08/23 01:43:16;;;;;;;;;;;;;;;17.46;67.12;101309.84;5018322;28;19920;-57
2022/08/23 01:45:42;;;;;;;;;;;;;;;17.42;67.15;101313.16;5024410;28;19913;-58
2022/08/23 01:48:07;;;;;;;;;;;;;;;17.33;67.45;101310.63;5024154;28;19913;-58
2022/08/23 01:50:32;;;;;;;;;;;;;;;17.25;68.16;101313.50;5026065;28;20515;-58
2022/08/23 01:52:58;;;;;;;;;;;;;;;17.07;68.45;101315.13;5023163;28;19913;-57
2022/08/23 01:55:23;;;;;;;;;;;;;;;16.93;67.94;101308.88;5019828;28;19939;-58
2022/08/23 01:57:50;;;;;;;;;;;;;;;16.89;68.84;101308.44;5018791;28;19917;-58
2022/08/23 02:00:16;;;;;;;;;;;;;;;16.85;69.20;101301.00;5023503;28;20431;-57
2022/08/23 02:02:41;;;;;;;;;;;;;;;16.77;69.73;101311.88;5020257;28;20004;-58
2022/08/23 02:05:07;;;;;;;;;;;;;;;16.72;70.16;101309.81;5020995;28;19919;-58
2022/08/23 02:07:33;;;;;;;;;;;;;;;16.71;70.04;101302.78;5029317;28;19912;-58
2022/08/23 02:09:58;;;;;;;;;;;;;;;16.73;69.65;101306.09;5031663;28;19939;-58
2022/08/23 02:12:23;;;;;;;;;;;;;;;16.76;69.89;101313.75;5024727;28;19909;-58
2022/08/23 02:14:48;;;;;;;;;;;;;;;16.55;71.22;101328.06;5030402;28;20320;-58
2022/08/23 02:17:15;;;;;;;;;;;;;;;16.22;71.17;101319.00;5022346;28;19952;-57
2022/08/23 02:19:40;;;;;;;;;;;;;;;16.03;72.23;101321.31;5029210;28;19912;-57
2022/08/23 02:22:06;;;;;;;;;;;;;;;15.94;71.94;101319.00;5025855;28;19947;-57
2022/08/23 02:24:31;;;;;;;;;;;;;;;15.88;72.89;101320.56;5028792;28;20012;-57
2022/08/23 02:26:58;;;;;;;;;;;;;;;15.85;72.67;101322.81;5036634;28;19955;-57
2022/08/23 02:29:25;;;;;;;;;;;;;;;15.84;73.65;101326.50;5027916;28;19913;-58
2022/08/23 02:31:50;;;;;;;;;;;;;;;15.78;73.17;101323.59;5035021;28;19919;-58
2022/08/23 02:34:17;;;;;;;;;;;;;;;15.74;73.76;101326.84;5030207;28;20280;-57
2022/08/23 02:36:42;;;;;;;;;;;;;;;15.73;73.78;101323.34;5033995;28;19909;-57
2022/08/23 02:39:09;;;;;;;;;;;;;;;15.74;73.88;101330.34;5029481;28;19982;-57
2022/08/23 02:41:35;;;;;;;;;;;;;;;15.83;74.47;101324.84;5029973;28;19924;-57
2022/08/23 02:44:00;;;;;;;;;;;;;;;15.94;74.16;101324.34;5031413;28;19920;-57
2022/08/23 02:46:25;;;;;;;;;;;;;;;16.07;74.75;101327.13;5035605;28;19916;-57
2022/08/23 02:48:50;;;;;;;;;;;;;;;16.17;74.39;101327.59;5023827;28;20320;-57
2022/08/23 02:51:16;;;;;;;;;;;;;;;16.28;74.15;101329.75;5016705;28;20300;-57
2022/08/23 02:53:41;;;;;;;;;;;;;;;16.36;73.98;101329.59;5020030;28;19921;-58
2022/08/23 02:56:07;;;;;;;;;;;;;;;16.44;73.61;101331.28;5026975;28;19994;-58
2022/08/23 02:58:32;;;;;;;;;;;;;;;16.51;73.24;101334.03;5021907;28;20058;-57
2022/08/23 03:00:58;;;;;;;;;;;;;;;16.54;73.13;101326.41;5021111;28;19928;-57
2022/08/23 03:03:23;;;;;;;;;;;;;;;16.59;73.31;101341.91;5021239;28;19921;-57
2022/08/23 03:05:49;;;;;;;;;;;;;;;16.62;72.99;101341.50;5026420;28;19948;-57
2022/08/23 03:08:14;;;;;;;;;;;;;;;16.61;73.07;101348.72;5015962;28;19935;-57
2022/08/23 03:10:43;;;;;;;;;;;;;;;16.62;72.53;101336.97;5028614;28;19913;-57
2022/08/23 03:13:09;;;;;;;;;;;;;;;16.68;72.79;101354.16;5017826;28;19999;-57
2022/08/23 03:15:34;;;;;;;;;;;;;;;16.74;72.25;101342.63;5023304;28;20372;-58
2022/08/23 03:17:59;;;;;;;;;;;;;;;16.79;72.44;101347.41;5020562;28;19919;-57
2022/08/23 03:20:25;;;;;;;;;;;;;;;16.83;72.28;101346.00;5027520;28;19921;-57
2022/08/23 03:22:50;;;;;;;;;;;;;;;16.87;72.31;101352.59;5020706;28;19920;-58
2022/08/23 03:25:15;;;;;;;;;;;;;;;16.89;72.35;101345.19;5021676;28;19917;-57
2022/08/23 03:27:41;;;;;;;;;;;;;;;16.93;72.28;101355.31;5020630;28;19912;-57
2022/08/23 03:30:07;;;;;;;;;;;;;;;16.96;72.58;101352.22;5021903;28;20340;-57
2022/08/23 03:32:32;;;;;;;;;;;;;;;16.99;72.26;101356.34;5021933;28;19924;-57
2022/08/23 03:34:57;;;;;;;;;;;;;;;17.01;72.31;101357.81;5022946;28;20012;-58
2022/08/23 03:37:22;;;;;;;;;;;;;;;17.02;72.76;101354.09;5023590;28;20339;-57
2022/08/23 03:39:48;;;;;;;;;;;;;;;17.02;72.46;101350.59;5019930;28;20320;-58
2022/08/23 03:42:13;;;;;;;;;;;;;;;17.04;72.17;101357.41;5024757;28;19947;-57
2022/08/23 03:44:38;;;;;;;;;;;;;;;17.07;72.24;101358.06;5024383;28;19921;-57
2022/08/23 03:47:04;;;;;;;;;;;;;;;17.10;72.40;101363.03;5022820;28;19916;-57
2022/08/23 03:49:30;;;;;;;;;;;;;;;17.12;71.93;101351.06;5024870;28;19955;-57
2022/08/23 03:51:55;;;;;;;;;;;;;;;17.16;71.96;101357.69;5020604;28;19949;-58
2022/08/23 03:54:20;;;;;;;;;;;;;;;17.20;72.00;101363.47;5021236;28;19921;-57
2022/08/23 03:56:54;;;;;;;;;;;;;;;17.23;72.22;101357.69;5024351;28;19966;-58
2022/08/23 03:59:19;;;;;;;;;;;;;;;17.27;72.23;101359.78;5020839;28;20006;-57
2022/08/23 04:01:45;;;;;;;;;;;;;;;17.30;72.68;101359.38;5021163;28;19913;-57
2022/08/23 04:04:10;;;;;;;;;;;;;;;17.32;72.64;101360.00;5021710;28;20023;-58
2022/08/23 04:06:35;;;;;;;;;;;;;;;17.33;72.79;101358.97;5023614;28;19917;-57
2022/08/23 04:09:00;;;;;;;;;;;;;;;17.35;72.28;101358.78;5015734;28;19919;-57
2022/08/23 04:11:26;;;;;;;;;;;;;;;17.37;72.32;101361.25;5027957;28;19920;-57
2022/08/23 04:13:51;;;;;;;;;;;;;;;17.37;72.36;101364.78;5025628;28;20399;-57
2022/08/23 04:16:17;;;;;;;;;;;;;;;17.39;71.89;101364.56;5023114;28;20909;-58
2022/08/23 04:18:43;;;;;;;;;;;;;;;17.40;72.37;101359.00;5020983;28;19925;-58
2022/08/23 04:21:11;;;;;;;;;;;;;;;17.42;72.26;101366.84;5020279;28;19960;-57
2022/08/23 04:23:36;;;;;;;;;;;;;;;17.43;72.47;101369.31;5019275;28;20427;-57
2022/08/23 04:26:02;;;;;;;;;;;;;;;17.45;72.24;101367.28;5020994;28;19917;-58
2022/08/23 04:28:27;;;;;;;;;;;;;;;17.46;72.40;101368.91;5020194;28;19921;-58
2022/08/23 04:30:52;;;;;;;;;;;;;;;17.49;72.52;101367.69;5019035;28;19923;-55
2022/08/23 04:33:18;;;;;;;;;;;;;;;17.48;72.79;101366.03;5020487;28;20443;-57
2022/08/23 04:35:43;;;;;;;;;;;;;;;17.48;72.61;101368.72;5020091;28;19972;-57
2022/08/23 04:38:09;;;;;;;;;;;;;;;17.49;72.43;101371.19;5020895;28;20408;-57
2022/08/23 04:43:18;;;;;;;;;;;;;;;17.53;72.18;101379.66;5024078;28;19940;-57
2022/08/23 04:45:43;;;;;;;;;;;;;;;17.55;72.29;101374.94;5021031;28;20424;-58
2022/08/23 04:48:09;;;;;;;;;;;;;;;17.56;72.49;101371.22;5024223;28;20368;-57
2022/08/23 04:50:35;;;;;;;;;;;;;;;17.59;72.51;101381.53;5022343;28;20300;-58
2022/08/23 04:53:00;;;;;;;;;;;;;;;17.60;72.14;101375.97;5020665;28;19917;-56
2022/08/23 04:55:25;;;;;;;;;;;;;;;17.63;72.43;101385.47;5023295;28;19971;-57
2022/08/23 04:57:50;;;;;;;;;;;;;;;17.65;72.59;101378.06;5021529;28;19924;-58
2022/08/23 05:00:15;;;;;;;;;;;;;;;17.65;73.15;101383.44;5025088;28;19975;-57
2022/08/23 05:02:41;;;;;;;;;;;;;;;17.64;72.61;101382.59;5020626;28;19921;-58
2022/08/23 05:05:07;;;;;;;;;;;;;;;17.65;72.71;101376.19;5020686;28;20301;-58
2022/08/23 05:07:34;;;;;;;;;;;;;;;17.69;72.93;101384.72;5018077;28;19994;-57
2022/08/23 05:09:59;;;;;;;;;;;;;;;17.71;72.76;101382.66;5020998;28;19921;-57
2022/08/23 05:12:24;;;;;;;;;;;;;;;17.73;72.80;101391.31;5028323;28;19958;-56
2022/08/23 05:14:50;;;;;;;;;;;;;;;17.77;72.60;101387.19;5023585;28;19913;-57
2022/08/23 05:17:15;;;;;;;;;;;;;;;17.79;72.38;101390.50;5015642;28;20497;-58
2022/08/23 05:19:40;;;;;;;;;;;;;;;17.80;72.39;101392.16;5019098;28;20384;-58
2022/08/23 05:22:06;;;;;;;;;;;;;;;17.82;72.58;101383.88;5019355;28;19959;-56
2022/08/23 05:24:31;;;;;;;;;;;;;;;17.82;72.22;101384.72;5024372;28;19991;-57
2022/08/23 05:26:56;;;;;;;;;;;;;;;17.83;72.27;101386.38;5021953;28;19917;-57
2022/08/23 05:29:22;;;;;;;;;;;;;;;17.85;72.42;101388.84;5021440;28;20478;-58
2022/08/23 05:31:47;;;;;;;;;;;;;;;17.85;72.50;101394.22;5018959;28;19913;-58
2022/08/23 05:34:13;;;;;;;;;;;;;;;17.87;72.45;101395.66;5018551;28;19924;-58
2022/08/23 05:36:38;;;;;;;;;;;;;;;17.88;72.79;101394.63;5030357;28;19927;-56
2022/08/23 05:39:04;;;;;;;;;;;;;;;17.92;72.61;101397.75;5035432;28;19913;-58
2022/08/23 05:41:29;;;;;;;;;;;;;;;17.93;73.32;101402.13;5036199;28;19920;-57
2022/08/23 05:43:55;;;;;;;;;;;;;;;17.93;73.68;101411.00;5032934;28;20019;-57
2022/08/23 05:46:20;;;;;;;;;;;;;;;17.92;73.49;101419.25;5023627;28;20484;-56
2022/08/23 05:48:47;;;;;;;;;;;;;;;17.91;73.70;101425.66;5018696;28;19974;-57
2022/08/23 05:51:14;;;;;;;;;;;;;;;17.90;73.79;101430.19;5026146;28;19913;-57
2022/08/23 05:53:40;;;;;;;;;;;;;;;17.92;74.40;101427.28;5033909;28;19917;-57
2022/08/23 05:56:16;;;;;;;;;;;;;;;17.94;74.57;101433.31;5024930;28;19913;-57
2022/08/23 05:58:42;;;;;;;;;;;;;;;17.97;74.92;101424.84;5031176;28;19912;-57
2022/08/23 06:01:08;;;;;;;;;;;;;;;17.99;74.48;101428.16;5027211;28;20396;-58
2022/08/23 06:03:34;;;;;;;;;;;;;;;18.04;74.48;101431.06;5017791;28;19921;-56
2022/08/23 06:06:00;;;;;;;;;;;;;;;18.10;74.06;101432.09;5020174;28;19956;-58
2022/08/23 06:08:25;;;;;;;;;;;;;;;18.15;74.24;101425.06;5022357;28;19955;-55
2022/08/23 06:11:00;;;;;;;;;;;;;;;18.20;73.74;101436.00;5023247;28;19913;-57
2022/08/23 06:13:25;;;;;;;;;;;;;;;18.24;74.47;101441.84;5026304;28;20328;-57
2022/08/23 06:15:50;;;;;;;;;;;;;;;18.27;74.57;101436.88;5033257;28;20007;-57
2022/08/23 06:18:15;;;;;;;;;;;;;;;18.34;74.18;101444.09;5018591;28;19920;-57
2022/08/23 06:20:41;;;;;;;;;;;;;;;18.36;74.17;101437.47;5019654;28;19940;-57
2022/08/23 06:23:06;;;;;;;;;;;;;;;18.41;73.89;101450.28;5029224;28;19917;-57
2022/08/23 06:25:35;;;;;;;;;;;;;;;18.45;73.94;101443.47;5028066;28;19919;-57
2022/08/23 06:28:00;;;;;;;;;;;;;;;18.48;73.70;101440.34;5029573;28;19920;-58
2022/08/23 06:30:25;;;;;;;;;;;;;;;18.52;73.49;101436.25;5024890;28;19916;-57
2022/08/23 06:32:50;;;;;;;;;;;;;;;18.53;73.92;101443.28;5024611;28;19913;-57
2022/08/23 06:35:15;;;;;;;;;;;;;;;18.52;73.24;101445.13;5023802;28;19951;-57
2022/08/23 06:37:41;;;;;;;;;;;;;;;18.55;73.12;101443.91;5020674;28;20265;-57
2022/08/23 06:40:07;;;;;;;;;;;;;;;18.57;73.04;101452.56;5019864;28;19963;-58
2022/08/23 06:42:32;;;;;;;;;;;;;;;18.60;73.32;101449.47;5023795;28;19917;-57
2022/08/23 06:44:57;;;;;;;;;;;;;;;18.60;72.84;101449.47;5017791;28;19959;-57
2022/08/23 06:47:22;;;;;;;;;;;;;;;18.62;72.72;101449.25;5022770;28;20254;-57
2022/08/23 06:49:47;;;;;;;;;;;;;;;18.63;72.48;101457.16;5022698;28;19939;-57
2022/08/23 06:52:13;;;;;;;;;;;;;;;18.63;71.97;101453.63;5022474;28;20297;-57
2022/08/23 06:54:38;;;;;;;;;;;;;;;18.64;72.28;101456.13;5020090;28;19963;-56
2022/08/23 06:57:04;;;;;;;;;;;;;;;18.70;72.70;101452.59;5024844;28;19952;-55
2022/08/23 06:59:30;;;;;;;;;;;;;;;18.75;72.59;101455.47;5025204;28;19917;-58
2022/08/23 07:01:57;;;;;;;;;;;;;;;18.82;72.99;101444.72;5024861;28;19920;-57
2022/08/23 07:04:27;;;;;;;;;;;;;;;18.87;72.75;101448.44;5025627;28;19916;-57
2022/08/23 07:06:54;;;;;;;;;;;;;;;18.96;72.78;101445.50;5020442;28;20004;-57
2022/08/23 07:09:19;;;;;;;;;;;;;;;19.03;72.84;101449.00;5026183;28;20285;-56
2022/08/23 07:11:45;;;;;;;;;;;;;;;19.12;73.10;101448.56;5026222;28;19933;-56
2022/08/23 07:14:12;;;;;;;;;;;;;;;19.21;73.20;101451.03;5029615;28;19920;-56
2022/08/23 07:16:39;;;;;;;;;;;;;;;19.29;73.36;101457.00;5045319;28;19909;-57
2022/08/23 07:19:04;;;;;;;;;;;;;;;19.39;72.93;101454.69;5037406;28;19968;-55
2022/08/23 07:21:29;;;;;;;;;;;;;;;19.48;72.77;101458.78;5029826;28;20020;-57
2022/08/23 07:23:55;;;;;;;;;;;;;;;19.57;72.81;101456.69;5028990;28;19936;-57
2022/08/23 07:26:20;;;;;;;;;;;;;;;19.64;72.40;101457.47;5037229;28;19935;-56
2022/08/23 07:28:46;;;;;;;;;;;;;;;19.71;71.86;101469.09;5032763;28;19913;-57
2022/08/23 07:31:13;;;;;;;;;;;;;;;19.76;70.70;101466.56;5030945;28;19909;-56
2022/08/23 07:33:39;;;;;;;;;;;;;;;19.82;69.89;101464.88;5036473;28;19924;-55
2022/08/23 07:36:05;;;;;;;;;;;;;;;19.90;69.45;101463.78;5037943;28;19916;-56
2022/08/23 07:38:30;;;;;;;;;;;;;;;19.96;68.81;101465.63;5035888;28;19916;-56
2022/08/23 07:40:56;;;;;;;;;;;;;;;20.04;68.92;101468.88;5030840;28;19935;-57
2022/08/23 07:43:21;;;;;;;;;;;;;;;20.15;68.71;101474.59;5031661;28;19913;-57
2022/08/23 07:45:47;;;;;;;;;;;;;;;20.23;68.29;101474.31;5026304;28;20356;-56
2022/08/23 07:48:12;;;;;;;;;;;;;;;20.35;68.05;101478.00;5036530;28;20341;-54
2022/08/23 07:50:39;;;;;;;;;;;;;;;20.45;67.26;101481.03;5043245;28;20277;-56
2022/08/23 07:53:04;;;;;;;;;;;;;;;20.50;66.63;101477.69;5043588;28;19980;-56
2022/08/23 07:55:29;;;;;;;;;;;;;;;20.54;66.86;101482.44;5034168;28;19921;-56
2022/08/23 07:57:54;;;;;;;;;;;;;;;20.59;66.49;101479.91;5033708;28;20002;-54
2022/08/23 08:00:20;;;;;;;;;;;;;;;20.67;66.48;101481.50;5042902;28;20292;-56
2022/08/23 08:02:45;;;;;;;;;;;;;;;20.73;65.82;101486.81;5031594;28;19909;-53
2022/08/23 08:05:10;;;;;;;;;;;;;;;20.83;65.81;101490.91;5038009;28;19920;-55
2022/08/23 08:07:35;;;;;;;;;;;;;;;20.88;65.70;101486.47;5028250;28;19995;-56
2022/08/23 08:10:01;;;;;;;;;;;;;;;20.96;65.45;101494.28;5028960;28;20284;-57
2022/08/23 08:12:27;;;;;;;;;;;;;;;21.01;65.46;101494.44;5034999;28;19909;-56
2022/08/23 08:14:52;;;;;;;;;;;;;;;21.08;65.57;101497.06;5031483;28;19913;-56
2022/08/23 08:17:17;;;;;;;;;;;;;;;21.14;65.39;101498.91;5046490;28;20400;-56
2022/08/23 08:19:43;;;;;;;;;;;;;;;21.21;65.38;101504.22;5031208;28;19915;-54
2022/08/23 08:22:08;;;;;;;;;;;;;;;21.26;65.23;101499.81;5027240;28;19913;-55
2022/08/23 08:24:33;;;;;;;;;;;;;;;21.35;65.41;101497.63;5046833;28;19912;-56
2022/08/23 08:26:58;;;;;;;;;;;;;;;21.44;65.00;101498.16;5019847;28;20035;-55
2022/08/23 08:29:24;;;;;;;;;;;;;;;21.53;64.87;101497.63;5024051;28;19913;-57
2022/08/23 08:31:50;;;;;;;;;;;;;;;21.62;64.24;101500.84;5032065;28;20331;-55
2022/08/23 08:34:16;;;;;;;;;;;;;;;21.71;64.07;101498.66;5020611;28;20400;-56
2022/08/23 08:36:50;;;;;;;;;;;;;;;21.79;64.17;101496.47;5024823;28;20390;-55
2022/08/23 08:39:17;;;;;;;;;;;;;;;21.88;63.97;101495.06;5034591;28;19919;-56
2022/08/23 08:41:47;;;;;;;;;;;;;;;22.00;64.03;101491.63;5034065;28;19933;-56
2022/08/23 08:44:12;;;;;;;;;;;;;;;22.09;63.87;101501.06;5025596;28;19959;-56
2022/08/23 08:46:44;;;;;;;;;;;;;;;22.20;64.02;101503.78;5021586;28;19959;-56
2022/08/23 08:49:13;;;;;;;;;;;;;;;22.31;63.70;101509.50;5039799;28;20356;-55
2022/08/23 08:52:11;;;;;;;;;;;;;;;22.42;63.41;101512.22;5035936;28;19974;-56
2022/08/23 08:54:37;;;;;;;;;;;;;;;22.59;63.22;101514.25;5018406;28;20318;-57
2022/08/23 08:57:03;;;;;;;;;;;;;;;22.72;62.43;101514.84;5039610;28;19918;-57
2022/08/23 08:59:37;;;;;;;;;;;;;;;22.86;62.38;101518.19;5033121;28;19914;-55
2022/08/23 09:02:05;;;;;;;;;;;;;;;22.99;62.09;101523.34;5034770;28;19913;-56
2022/08/23 09:04:30;;;;;;;;;;;;;;;23.21;61.67;101525.47;5035597;28;19992;-55
2022/08/23 09:07:06;;;;;;;;;;;;;;;23.46;61.37;101516.00;5033075;28;20020;-56
2022/08/23 09:09:46;;;;;;;;;;;;;;;23.58;61.15;101524.13;5038483;28;19912;-55
2022/08/23 09:12:15;;;;;;;;;;;;;;;23.70;60.22;101524.06;5023580;28;20003;-56
2022/08/23 09:14:49;;;;;;;;;;;;;;;23.89;59.54;101522.00;5019560;28;19913;-56
2022/08/23 09:17:19;;;;;;;;;;;;;;;24.01;59.19;101529.03;5019619;28;19921;-60
2022/08/23 09:19:48;;;;;;;;;;;;;;;24.13;59.02;101528.16;5027086;28;19920;-58
2022/08/23 09:22:17;;;;;;;;;;;;;;;24.21;58.03;101531.28;5027863;28;20369;-53
2022/08/23 09:24:43;;;;;;;;;;;;;;;24.35;57.78;101531.84;5025026;28;20377;-57
2022/08/23 09:27:08;;;;;;;;;;;;;;;24.54;56.52;101530.53;5028145;28;19967;-56
2022/08/23 09:29:35;;;;;;;;;;;;;;;24.68;56.55;101528.31;5032165;28;19917;-56
2022/08/23 09:32:02;;;;;;;;;;;;;;;24.76;55.85;101530.59;5028973;28;20596;-57
2022/08/23 09:34:36;;;;;;;;;;;;;;;24.84;54.91;101534.78;5025047;28;19921;-56
2022/08/23 09:37:21;;;;;;;;;;;;;;;24.95;54.15;101529.28;5028733;28;19921;-56
2022/08/23 09:39:49;;;;;;;;;;;;;;;25.19;54.90;101526.41;5022662;28;19917;-55
2022/08/23 09:42:29;;;;;;;;;;;;;;;25.31;53.70;101529.81;5023785;28;19943;-56
2022/08/23 09:44:55;;;;;;;;;;;;;;;25.45;53.12;101525.66;5024788;28;19921;-56
2022/08/23 09:47:29;;;;;;;;;;;;;;;25.62;52.46;101526.41;5027100;28;19999;-56
2022/08/23 09:49:55;;;;;;;;;;;;;;;25.83;51.95;101521.22;5028163;28;19917;-56
2022/08/23 09:52:40;;;;;;;;;;;;;;;25.99;51.88;101520.28;5033754;28;20333;-56
2022/08/23 09:55:11;;;;;;;;;;;;;;;26.12;50.02;101527.25;5022948;28;20368;-55
2022/08/23 09:57:37;;;;;;;;;;;;;;;26.17;50.07;101522.66;5028429;28;20720;-56
2022/08/23 10:00:14;;;;;;;;;;;;;;;26.23;49.74;101516.19;5027866;28;20013;-56
2022/08/23 10:02:39;;;;;;;;;;;;;;;26.30;49.50;101515.97;5022437;28;19944;-56
2022/08/23 10:05:14;;;;;;;;;;;;;;;26.38;48.97;101512.81;5021429;28;19913;-57
2022/08/23 10:07:41;;;;;;;;;;;;;;;26.46;48.05;101519.69;5031787;28;19909;-56
2022/08/23 10:10:14;;;;;;;;;;;;;;;26.54;47.85;101511.00;5040107;28;19908;-57
2022/08/23 10:12:40;;;;;;;;;;;;;;;26.55;46.79;101510.75;5040156;28;20004;-57
2022/08/23 10:15:05;;;;;;;;;;;;;;;26.61;46.07;101513.53;5018606;28;20011;-56
2022/08/23 10:17:36;;;;;;;;;;;;;;;26.64;45.96;101510.28;5015213;28;19913;-57
2022/08/23 10:20:24;;;;;;;;;;;;;;;26.73;45.72;101504.09;5018515;28;19932;-53
2022/08/23 10:23:08;;;;;;;;;;;;;;;26.80;45.43;101507.41;5018857;28;19920;-56
2022/08/23 10:25:42;;;;;;;;;;;;;;;26.82;45.31;101507.94;5028362;28;19913;-56
2022/08/23 10:31:09;;;;;;;;;;;;;;;26.92;44.30;101514.56;5032505;28;19920;-57
2022/08/23 10:33:58;;;;;;;;;;;;;;;27.03;44.72;101508.13;5037739;28;19936;-56
2022/08/23 10:36:41;;;;;;;;;;;;;;;27.23;44.45;101508.22;5025809;28;19925;-56
2022/08/23 10:39:13;;;;;;;;;;;;;;;27.36;44.55;101507.72;5031502;28;20027;-56
2022/08/23 10:41:54;;;;;;;;;;;;;;;27.41;44.21;101515.13;5031668;28;19964;-57
2022/08/23 10:44:24;;;;;;;;;;;;;;;27.31;43.81;101509.63;5023425;28;20392;-55
2022/08/23 10:46:56;;;;;;;;;;;;;;;27.32;44.16;101506.63;5045346;28;19989;-55
2022/08/23 10:49:23;;;;;;;;;;;;;;;27.47;44.78;101503.16;5030493;28;19914;-56
2022/08/23 10:51:49;;;;;;;;;;;;;;;27.61;44.03;101498.81;5037427;28;19948;-57
2022/08/23 10:54:33;;;;;;;;;;;;;;;27.63;43.50;101502.13;5029328;28;19971;-56
2022/08/23 10:57:00;;;;;;;;;;;;;;;27.63;43.28;101501.31;5030885;28;19912;-57
2022/08/23 10:59:26;;;;;;;;;;;;;;;27.69;43.68;101497.50;5036928;28;19908;-56
2022/08/23 11:02:07;;;;;;;;;;;;;;;27.79;43.04;101494.81;5040351;28;19986;-56
2022/08/23 11:04:38;;;;;;;;;;;;;;;27.76;42.20;101492.63;5046351;28;19931;-57
2022/08/23 11:07:15;;;;;;;;;;;;;;;27.85;42.81;101496.47;5037020;28;19913;-57
2022/08/23 11:10:07;;;;;;;;;;;;;;;27.91;42.49;101492.66;5042478;28;19912;-57
2022/08/23 11:12:34;;;;;;;;;;;;;;;28.03;43.75;101495.13;5019678;28;19913;-55
2022/08/23 11:15:09;;;;;;;;;;;;;;;28.12;43.09;101496.25;5027214;28;20019;-56
2022/08/23 11:17:37;;;;;;;;;;;;;;;28.15;43.21;101494.88;5025579;28;19920;-56
2022/08/23 11:20:08;;;;;;;;;;;;;;;28.17;42.36;101495.41;5031801;28;20795;-56
2022/08/23 11:22:52;;;;;;;;;;;;;;;28.18;43.09;101489.69;5024829;28;19913;-56
2022/08/23 11:25:18;;;;;;;;;;;;;;;28.30;41.71;101505.81;5028215;28;19927;-56
2022/08/23 11:27:43;;;;;;;;;;;;;;;28.26;42.11;101496.53;5033754;28;19999;-57
2022/08/23 11:30:38;;;;;;;;;;;;;;;28.28;41.74;101486.16;5032241;28;20004;-56
2022/08/23 11:33:15;;;;;;;;;;;;;;;28.33;42.31;101488.88;5019964;28;19908;-57
2022/08/23 11:35:46;;;;;;;;;;;;;;;28.42;41.14;101491.91;5025577;28;19917;-56
2022/08/23 11:38:12;;;;;;;;;;;;;;;28.34;40.77;101505.03;5023936;28;19913;-56
2022/08/23 11:40:40;;;;;;;;;;;;;;;28.19;40.57;101499.50;5042043;28;21131;-57
2022/08/23 11:43:11;;;;;;;;;;;;;;;28.14;40.98;101506.88;5017057;28;20392;-56
2022/08/23 11:45:36;;;;;;;;;;;;;;;28.08;41.40;101495.97;5026590;28;20400;-56
2022/08/23 11:48:13;;;;;;;;;;;;;;;28.18;41.57;101494.31;5035803;28;19909;-57
2022/08/23 11:50:47;;;;;;;;;;;;;;;28.20;41.57;101503.06;5029906;28;19928;-57
2022/08/23 11:53:31;;;;;;;;;;;;;;;28.13;41.80;101488.88;5024845;28;19917;-57
2022/08/23 11:55:59;;;;;;;;;;;;;;;28.20;41.11;101497.59;5024942;28;20296;-57
2022/08/23 11:58:47;;;;;;;;;;;;;;;28.21;40.87;101493.78;5027652;28;19921;-57
2022/08/23 12:01:13;;;;;;;;;;;;;;;28.27;41.00;101500.91;5005438;28;20392;-57
2022/08/23 12:03:53;;;;;;;;;;;;;;;28.12;40.56;101493.50;5033693;28;19916;-55
2022/08/23 12:06:18;;;;;;;;;;;;;;;28.04;41.67;101492.13;5034357;28;20459;-56
2022/08/23 12:08:54;;;;;;;;;;;;;;;28.14;42.10;101491.31;5045959;28;19913;-55
2022/08/23 12:11:20;;;;;;;;;;;;;;;28.31;41.77;101489.16;5039442;28;19919;-57
2022/08/23 12:13:50;;;;;;;;;;;;;;;28.39;40.23;101487.81;5035011;28;20339;-57
2022/08/23 12:16:17;;;;;;;;;;;;;;;28.44;40.37;101497.91;5026496;28;20007;-56
2022/08/23 12:18:48;;;;;;;;;;;;;;;28.45;39.99;101497.63;5037498;28;19909;-54
2022/08/23 12:21:19;;;;;;;;;;;;;;;28.48;39.64;101494.34;5040795;28;20320;-56
2022/08/23 12:23:46;;;;;;;;;;;;;;;28.56;39.60;101491.06;5037345;28;19938;-58
2022/08/23 12:26:20;;;;;;;;;;;;;;;28.70;40.05;101496.81;5027016;28;19916;-56
2022/08/23 12:28:48;;;;;;;;;;;;;;;28.91;39.12;101501.16;5038802;28;19978;-57
2022/08/23 12:31:19;;;;;;;;;;;;;;;28.99;39.67;101488.84;5045018;28;19966;-55
2022/08/23 12:33:50;;;;;;;;;;;;;;;29.07;39.51;101493.72;5022887;28;19913;-56
2022/08/23 12:36:35;;;;;;;;;;;;;;;29.12;38.71;101484.69;5024278;28;20334;-57
2022/08/23 12:39:01;;;;;;;;;;;;;;;29.23;39.06;101489.03;5019455;28;19917;-57
2022/08/23 12:41:32;;;;;;;;;;;;;;;29.33;38.62;101491.72;5024109;28;20024;-57
2022/08/23 12:43:59;;;;;;;;;;;;;;;29.34;37.71;101498.81;5025372;28;20510;-57
2022/08/23 12:46:29;;;;;;;;;;;;;;;29.21;37.88;101497.53;5035702;28;20236;-57
2022/08/23 12:48:54;;;;;;;;;;;;;;;29.28;37.21;101495.31;5022868;28;19917;-57
2022/08/23 12:51:19;;;;;;;;;;;;;;;29.33;37.54;101502.66;5034457;28;19909;-57